Regional La Paz
EstaciónAerodromoSit. GeograficaDescripción
SLLPInternaciónal El Alto16-08S-68-10W SLLP 270600Z 07003KT 4000E VCFG FEW003 FEW017CB SCT200 03/02 Q1035 A3058 626.3 HR95 VCFG NE/E/SE CB/LT/N AC NOSIG=
SLRYReyes14-18S-67-21W SLRY 262200Z 34004KT 9999 FEW020 SCT200 34/24 Q1002 A2961 HR57 FU RWY NML=
SLRQRurrenabaque14-25S-67-29W COR SLRQ 262200Z 36004KT 8000 SCT020 BKN200 33/25 Q1003 A2962 979.0 HR62 FU=
SLAPApolo14-44S-68-24W SLAP 261800Z 00000KT 9999 FEW025 33/15 Q1012 A2991 854.1 HR34=
SLSBSan Borja14-51S-66-44W SLSB 262300Z 10012KT 3000 -TSRA BKN017 FEW023CB BKN200 27/25 Q1005 A2969 HR88 TS/CB ON STN S/SW RWY WET OPR C210=
SLCNCharaña17-35S-69-25W SLCN 112000Z
SLOROruro17-57S-67-04W SLOR 261800Z 36008KT 9999 SCT025 23/03 Q1030 A3044 653.1 HR26 CI=
SLUYUyuni20-27S-62-52W SLUY 261800Z NIL=
SLCCCopacabana - Tito Yupanqui16-11S-69-05W SLCC 071100Z NIL=
Regional Cochabamba
EstaciónAerodromoSit. GeograficaDescripción
SLVMVillamontes21-15S-63-24W SLVM 262000Z NIL=
SLHIChimore16-58S-65-09W SLHI 262000Z NIL=
SLCBCochabamba17-25S-66-10W SLCB 270600Z 00000KT 9999 FEW025 SCT036 BKN070 14/12 Q1024 A3025 751.0 HR86 CI NOSIG=
SLALAlcantari19-14S-65-09W SLAL 262000Z 03015G25KT 9999 SCT015 FEW030CB BKN200 16/09 Q1024 A3025 700.4 HR65 CB/SE/S/SW AC=
SLPOPotosí19-32S-65-43W SLPO 262000Z NIL=
SLAGMonteagudo19-49S-63-58W SLAG 262000Z NIL=
SLTJTarija21-33S-64-42W SLTJ 262000Z 16008KT 9999 BKN025 OVC070 16/09 Q1020 A3013 815.2 HR65=
SLYAYacuiba21-57S-63-39W SLYA 262000Z NIL=
SLBJBermejo22-46S-64-18W SLBJ 262000Z NIL=
Regional Santa Cruz
EstaciónAerodromoSit. GeograficaDescripción
SLVGValle Grande18-28S-64-05W SLVG 262100Z 18007KT 9999 SCT070 BKN200 18/08 Q1023 A3021 HR45 RWY NML=
SLASAscención de Guarayos15-55S-63-09W SLAS 262200Z 18015KT 9999 FEW020 OVC200 26/19 Q1011 A2986 HR65 FU RWY NML=
SLCPConcepción16-08S-62-01W SLCP 262200Z 18010KT 9999 BKN013 OVC070 23/20 Q1012 A2988 HR83 RWY NML=
SLJVSan Javier16-16S-62-28W SLJV 262200Z 19010KT 9999 SCT020 OVC070 23/20 Q1009 A2980 HR81 FU RWY HUM OPR=
SLTISan Matías16-20S-58-24W SLTI 262200Z 00000KT 9999 BKN023 OVC200 32/23 Q1009 A2980 HR60 RWY NML=
SLSISan Ignacio de Velasco16-23S-60-57W SLSI 262300Z 22010KT 9999 SCT015 OVC070 24/22 Q1010 A2983 HR85 RWY NML=
SLVRInternaciónal Viru Viru17-38S-63-08W SLVR 270600Z 18005KT 9999 BKN070 BKN200 21/17 Q1011 A2986 HR79 NOSIG=
SLETEl Trompillo17-48S-63-10W SLET 262200Z 15010KT 9999 SCT025 FEW030CB BKN070 BKN200 27/15 Q1009 A2980 HR47 CB NW NOSIG=
SLJESan José de Chiquitos17-49S-60-44W SLJE 262200Z 18012KT 9999 OVC013 26/20 Q1012 A2988 HR70 RWY NML=
SLRBRoboré18-19S-59-45W SLRB 262300Z 18004KT 9999 OVC017 22/19 Q1013 A2991 HR85 RWY NML=
SLPSPuerto Suárez18-58S-57-49W SLPS 262200Z 18010KT 6000 -RA BKN015 FEW030CB OVC070 22/22 Q1010 A2983 HR100 CB/N/E/NE RETS=
SLCACamiri20-00S-63-31W SLCA 262300Z 00000KT 9999 BKN080 25/18 Q1015 A2997 HR64 RWY NML=
Regional Beni
EstaciónAerodromoSit. GeograficaDescripción
SLTRTrinidad14-49S-64-54W SLTR 262300Z 12016KT 6000 VCSH SCT008 FEW023CB BKN200 24/23 Q1008 A2979 990.2 HR94 FU CB/SH N/NE/W/NW TEMPO RA=
SLCOCobija11-02S-68-47W SLCO 262300Z 31004KT 9999 SCT025 33/22 Q1005 A2968 977.8 HR53 FU=
SLGMGuayaramerín10-53S-65-23W SLGM 262300Z 34006KT 8000 VCSH SCT017 FEW020CB BKN200 32/24 Q1006 A2972 HR65 CB/SH NE/E=
SLRIRiberalta11-00S-66-04W SLRI 262300Z 36004KT 8000 VCSH FEW017 FEW020CB BKN200 32/24 Q1006 A2972 HR62 CB/SH NE/E/S=
SLJOSan Joaquin13-03S-64-39W SLJO 262200Z NIL=
SLRASan Ramón13-15S-64-36W SLRA 262200Z 36006KT 8000 FEW020 FEW023CB OVC200 31/23 Q1004 A2966 HR62 FU CB SE/S RWY NML=
SLMGSan Magdalena13-15S-64-36W SLMG 262300Z 00000KT 8000 TS VCSH SCT020 FEW023CB OVC070 24/24 Q1006 A2972 HR98 RERA CB/TS/SH SE/S RWY OPR C210=
SLBUBaures13-39S-63-42W SLBU 262200Z NIL=
SLSASanta Ana de Yacuma13-45S-65-26W SLSA 262300Z 10010KT 6000 TS VCSH SCT020 FEW023CB BKN200 30/23 Q1005 A2968 HR67 FU CB/SH E/SE/S/SW/W TS SW/W=
SLSRSanta Rosa14-04S-66-47W SLSR 262200Z 32006KT 5000 FU VCSH SCT017 FEW023CB BKN200 34/24 Q1006 A2962 HR54 CB/SH SE/S RWY NML=
SLSMSan Ignacio de Moxos14-57S-65-38W SLSM 262200Z 15015G25KT 6000 TS VCSH BKN015 FEW020CB OVC070 26/22 Q1006 A2971 HR77 CB/SH E/SE/S/SW TS S/SW RWY NML=